Bautista Pino — EASK — position and weather

sailwx.info

Track history (hours):
 
Tides and Currents Weather Stations Pressure Air Temp Water Temp Dewpoint Dewpoint Depression Visibility Wind Speed Wind Dir Waves Ship Positions

Bautista Pino

Last reported at 2015-Jan-22 01:13 UTC. Time now 2015-Feb-01 05:44 UTC.
Position N 43°38' W 005°39'.
Warning: this ship's position is 10 days out of date.

Length 29 m; draft 3.5 m.

Type: Fishing. MMSI: 224181290.

Date/timePositionNaut miles runAvg speedWind from/ knotsBaromVisibWave heightAir tempDewpointWater temp
2015-Jan-22 01:13N 43°38' W 005°39'4 5.7
2015-Jan-22 00:30N 43°34' W 005°39'2 2.1
2015-Jan-21 23:30N 43°33' W 005°42'0 0.0
2015-Jan-21 22:48N 43°33' W 005°42'0 0.0
2015-Jan-21 22:44N 43°33' W 005°42'0 0.0
2015-Jan-21 22:33N 43°33' W 005°42'0 0.0
2015-Jan-21 21:23N 43°33' W 005°42'0 0.0
2015-Jan-21 20:33N 43°33' W 005°42'0 0.0
2015-Jan-21 19:33N 43°33' W 005°42'0 0.0
2015-Jan-21 18:25N 43°33' W 005°42'0 0.0
2015-Jan-21 17:33N 43°33' W 005°42'0 0.0
2015-Jan-21 16:29N 43°33' W 005°42'0 0.0
2015-Jan-21 15:33N 43°33' W 005°42'0 0.0
2015-Jan-21 14:33N 43°33' W 005°42'0 0.0
2015-Jan-21 13:32N 43°33' W 005°42'0 0.0
2015-Jan-21 12:33N 43°33' W 005°42'0 0.0
2015-Jan-21 11:33N 43°33' W 005°42'0 0.0
2015-Jan-21 10:32N 43°33' W 005°42'0 0.0
2015-Jan-21 09:33N 43°33' W 005°42'0 0.0
2015-Jan-21 08:23N 43°33' W 005°42'0 0.0
2015-Jan-21 07:24N 43°33' W 005°42'0 0.1
2015-Jan-21 06:33N 43°33' W 005°42'0 0.0
2015-Jan-21 05:33N 43°33' W 005°42'7 7.2
2015-Jan-21 04:33N 43°36' W 005°32'8 7.6
2015-Jan-21 03:32N 43°38' W 005°22'7 7.2
2015-Jan-21 02:30N 43°40' W 005°12'13 0.5
2015-Jan-20 02:33N 43°41' W 005°30'8 7.7
2015-Jan-20 01:33N 43°35' W 005°38'4 3.6
2015-Jan-20 00:34N 43°33' W 005°42'0 0.0
2015-Jan-19 23:31N 43°33' W 005°42'0 0.0
2015-Jan-19 22:32N 43°33' W 005°42'0 0.1
2015-Jan-19 21:32N 43°33' W 005°42'10 8.7
2015-Jan-19 20:22N 43°36' W 005°28'6 0.3
2015-Jan-19 01:28N 43°41' W 005°32'7 7.1
2015-Jan-19 00:32N 43°36' W 005°37'4 3.2
2015-Jan-18 23:14N 43°33' W 005°42'0 0.0
2015-Jan-18 21:19N 43°33' W 005°42'0 0.0
2015-Jan-18 20:29N 43°33' W 005°42'0 0.0
2015-Jan-18 19:30N 43°33' W 005°42'0 0.0
2015-Jan-18 18:32N 43°33' W 005°42'0 0.0
2015-Jan-18 17:31N 43°33' W 005°42'0 0.0
2015-Jan-18 15:30N 43°33' W 005°42'0 0.0
2015-Jan-18 13:16N 43°33' W 005°42'0 0.0
2015-Jan-18 12:28N 43°33' W 005°42'0 0.0
2015-Jan-18 09:33N 43°33' W 005°42'0 0.0
2015-Jan-18 08:30N 43°33' W 005°42'0 0.0
2015-Jan-18 07:21N 43°33' W 005°42'0 0.0
2015-Jan-18 05:22N 43°33' W 005°42'0 0.0
2015-Jan-18 04:30N 43°33' W 005°42'0 0.0
2015-Jan-18 01:16N 43°33' W 005°42'0 0.0
2015-Jan-18 00:27N 43°33' W 005°42'0 0.0
2015-Jan-17 23:27N 43°33' W 005°42'0 0.0
2015-Jan-17 22:33N 43°33' W 005°42'0 0.0
2015-Jan-17 19:31N 43°33' W 005°42'0 0.0
2015-Jan-17 18:10N 43°33' W 005°42'0 0.0
2015-Jan-17 17:23N 43°33' W 005°42'0 0.0
2015-Jan-17 13:23N 43°33' W 005°42'0 0.0
2015-Jan-17 12:31N 43°33' W 005°42'0 0.0
2015-Jan-17 11:30N 43°33' W 005°42'0 0.0
2015-Jan-17 10:22N 43°33' W 005°42'0 0.0
2015-Jan-17 09:13N 43°33' W 005°42'0 0.0
2015-Jan-17 08:28N 43°33' W 005°42'0 0.0
2015-Jan-17 07:14N 43°33' W 005°42'0 0.0
2015-Jan-17 06:32N 43°33' W 005°42'0 0.0
2015-Jan-17 05:30N 43°33' W 005°42'0 0.0
2015-Jan-17 04:32N 43°33' W 005°42'0 0.0
2015-Jan-17 03:29N 43°33' W 005°42'0 0.0
2015-Jan-17 02:22N 43°33' W 005°42'0 0.0
2015-Jan-17 01:31N 43°33' W 005°42'0 0.0
2015-Jan-16 18:30N 43°33' W 005°42'0 0.1
2015-Jan-16 17:20N 43°33' W 005°42'0 0.5
2015-Jan-16 16:32N 43°34' W 005°41'8 8.0
2015-Jan-16 15:29N 43°40' W 005°48'13 5.9
2015-Jan-16 13:22N 43°45' W 006°04'18 1.7
2015-Jan-16 02:27N 43°42' W 005°39'1 0.9
2015-Jan-16 01:27N 43°42' W 005°40'5 3.8
2015-Jan-16 00:08N 43°37' W 005°40'4 6.7
2015-Jan-15 23:33N 43°33' W 005°42'0 0.0
2015-Jan-15 22:32N 43°33' W 005°42'0 0.0
2015-Jan-15 20:25N 43°33' W 005°42'6 6.9
2015-Jan-15 19:33N 43°35' W 005°34'12 8.7
2015-Jan-15 18:12N 43°37' W 005°18'10 0.6
2015-Jan-15 01:28N 43°46' W 005°24'0 0.3
2015-Jan-15 00:29N 43°46' W 005°24'1 0.4
2015-Jan-14 22:27N 43°46' W 005°25'12 0.6
2015-Jan-14 01:14N 43°37' W 005°37'5 4.1
2015-Jan-14 00:03N 43°33' W 005°42'0 0.0
2015-Jan-13 23:26N 43°33' W 005°42'0 0.2
2015-Jan-13 22:30N 43°33' W 005°41'10 9.3
2015-Jan-13 21:24N 43°38' W 005°29'  
Track history (hours):
 
Tides and Currents Weather Stations Pressure Air Temp Water Temp Dewpoint Dewpoint Depression Visibility Wind Speed Wind Dir Waves Ship Positions

Bautista Pino

Last reported at 2015-Jan-22 01:13 UTC. Time now 2015-Feb-01 05:44 UTC.
Position N 43°38' W 005°39'.
Warning: this ship's position is 10 days out of date.

Length 29 m; draft 3.5 m.

Type: Fishing. MMSI: 224181290.

Date/timePositionNaut miles runAvg speedWind from/ knotsBaromVisibWave heightAir tempDewpointWater temp
2015-Jan-22 01:13N 43°38' W 005°39'4 5.7
2015-Jan-22 00:30N 43°34' W 005°39'2 2.1
2015-Jan-21 23:30N 43°33' W 005°42'0 0.0
2015-Jan-21 22:48N 43°33' W 005°42'0 0.0
2015-Jan-21 22:44N 43°33' W 005°42'0 0.0
2015-Jan-21 22:33N 43°33' W 005°42'0 0.0
2015-Jan-21 21:23N 43°33' W 005°42'0 0.0
2015-Jan-21 20:33N 43°33' W 005°42'0 0.0
2015-Jan-21 19:33N 43°33' W 005°42'0 0.0
2015-Jan-21 18:25N 43°33' W 005°42'0 0.0
2015-Jan-21 17:33N 43°33' W 005°42'0 0.0
2015-Jan-21 16:29N 43°33' W 005°42'0 0.0
2015-Jan-21 15:33N 43°33' W 005°42'0 0.0
2015-Jan-21 14:33N 43°33' W 005°42'0 0.0
2015-Jan-21 13:32N 43°33' W 005°42'0 0.0
2015-Jan-21 12:33N 43°33' W 005°42'0 0.0
2015-Jan-21 11:33N 43°33' W 005°42'0 0.0
2015-Jan-21 10:32N 43°33' W 005°42'0 0.0
2015-Jan-21 09:33N 43°33' W 005°42'0 0.0
2015-Jan-21 08:23N 43°33' W 005°42'0 0.0
2015-Jan-21 07:24N 43°33' W 005°42'0 0.1
2015-Jan-21 06:33N 43°33' W 005°42'0 0.0
2015-Jan-21 05:33N 43°33' W 005°42'7 7.2
2015-Jan-21 04:33N 43°36' W 005°32'8 7.6
2015-Jan-21 03:32N 43°38' W 005°22'7 7.2
2015-Jan-21 02:30N 43°40' W 005°12'13 0.5
2015-Jan-20 02:33N 43°41' W 005°30'8 7.7
2015-Jan-20 01:33N 43°35' W 005°38'4 3.6
2015-Jan-20 00:34N 43°33' W 005°42'0 0.0
2015-Jan-19 23:31N 43°33' W 005°42'0 0.0
2015-Jan-19 22:32N 43°33' W 005°42'0 0.1
2015-Jan-19 21:32N 43°33' W 005°42'10 8.7
2015-Jan-19 20:22N 43°36' W 005°28'6 0.3
2015-Jan-19 01:28N 43°41' W 005°32'7 7.1
2015-Jan-19 00:32N 43°36' W 005°37'4 3.2
2015-Jan-18 23:14N 43°33' W 005°42'0 0.0
2015-Jan-18 21:19N 43°33' W 005°42'0 0.0
2015-Jan-18 20:29N 43°33' W 005°42'0 0.0
2015-Jan-18 19:30N 43°33' W 005°42'0 0.0
2015-Jan-18 18:32N 43°33' W 005°42'0 0.0
2015-Jan-18 17:31N 43°33' W 005°42'0 0.0
2015-Jan-18 15:30N 43°33' W 005°42'0 0.0
2015-Jan-18 13:16N 43°33' W 005°42'0 0.0
2015-Jan-18 12:28N 43°33' W 005°42'0 0.0
2015-Jan-18 09:33N 43°33' W 005°42'0 0.0
2015-Jan-18 08:30N 43°33' W 005°42'0 0.0
2015-Jan-18 07:21N 43°33' W 005°42'0 0.0
2015-Jan-18 05:22N 43°33' W 005°42'0 0.0
2015-Jan-18 04:30N 43°33' W 005°42'0 0.0
2015-Jan-18 01:16N 43°33' W 005°42'0 0.0
2015-Jan-18 00:27N 43°33' W 005°42'0 0.0
2015-Jan-17 23:27N 43°33' W 005°42'0 0.0
2015-Jan-17 22:33N 43°33' W 005°42'0 0.0
2015-Jan-17 19:31N 43°33' W 005°42'0 0.0
2015-Jan-17 18:10N 43°33' W 005°42'0 0.0
2015-Jan-17 17:23N 43°33' W 005°42'0 0.0
2015-Jan-17 13:23N 43°33' W 005°42'0 0.0
2015-Jan-17 12:31N 43°33' W 005°42'0 0.0
2015-Jan-17 11:30N 43°33' W 005°42'0 0.0
2015-Jan-17 10:22N 43°33' W 005°42'0 0.0
2015-Jan-17 09:13N 43°33' W 005°42'0 0.0
2015-Jan-17 08:28N 43°33' W 005°42'0 0.0
2015-Jan-17 07:14N 43°33' W 005°42'0 0.0
2015-Jan-17 06:32N 43°33' W 005°42'0 0.0
2015-Jan-17 05:30N 43°33' W 005°42'0 0.0
2015-Jan-17 04:32N 43°33' W 005°42'0 0.0
2015-Jan-17 03:29N 43°33' W 005°42'0 0.0
2015-Jan-17 02:22N 43°33' W 005°42'0 0.0
2015-Jan-17 01:31N 43°33' W 005°42'0 0.0
2015-Jan-16 18:30N 43°33' W 005°42'0 0.1
2015-Jan-16 17:20N 43°33' W 005°42'0 0.5
2015-Jan-16 16:32N 43°34' W 005°41'8 8.0
2015-Jan-16 15:29N 43°40' W 005°48'13 5.9
2015-Jan-16 13:22N 43°45' W 006°04'18 1.7
2015-Jan-16 02:27N 43°42' W 005°39'1 0.9
2015-Jan-16 01:27N 43°42' W 005°40'5 3.8
2015-Jan-16 00:08N 43°37' W 005°40'4 6.7
2015-Jan-15 23:33N 43°33' W 005°42'0 0.0
2015-Jan-15 22:32N 43°33' W 005°42'0 0.0
2015-Jan-15 20:25N 43°33' W 005°42'6 6.9
2015-Jan-15 19:33N 43°35' W 005°34'12 8.7
2015-Jan-15 18:12N 43°37' W 005°18'10 0.6
2015-Jan-15 01:28N 43°46' W 005°24'0 0.3
2015-Jan-15 00:29N 43°46' W 005°24'1 0.4
2015-Jan-14 22:27N 43°46' W 005°25'12 0.6
2015-Jan-14 01:14N 43°37' W 005°37'5 4.1
2015-Jan-14 00:03N 43°33' W 005°42'0 0.0
2015-Jan-13 23:26N 43°33' W 005°42'0 0.2
2015-Jan-13 22:30N 43°33' W 005°41'10 9.3
2015-Jan-13 21:24N 43°38' W 005°29'  

Dump ship's entire track history